sensor_id;sensor_type;location;lat;lon;timestamp;temperature;humidity
38973;DHT22;25333;50.762;4.470;2024-01-11T00:02:23;-4.40;99.90
38973;DHT22;25333;50.762;4.470;2024-01-11T00:04:49;-4.40;99.90
38973;DHT22;25333;50.762;4.470;2024-01-11T00:07:15;-4.40;99.90
38973;DHT22;25333;50.762;4.470;2024-01-11T00:09:42;-4.50;99.90
38973;DHT22;25333;50.762;4.470;2024-01-11T00:12:08;-4.50;99.90
38973;DHT22;25333;50.762;4.470;2024-01-11T00:14:35;-4.50;99.90
38973;DHT22;25333;50.762;4.470;2024-01-11T00:17:01;-4.60;99.90
38973;DHT22;25333;50.762;4.470;2024-01-11T00:19:26;-4.60;99.90
38973;DHT22;25333;50.762;4.470;2024-01-11T00:21:52;-4.50;99.90
38973;DHT22;25333;50.762;4.470;2024-01-11T00:24:18;-4.60;99.90
38973;DHT22;25333;50.762;4.470;2024-01-11T00:26:43;-4.60;99.90
38973;DHT22;25333;50.762;4.470;2024-01-11T00:29:09;-4.60;99.90
38973;DHT22;25333;50.762;4.470;2024-01-11T00:31:35;-4.60;99.90
38973;DHT22;25333;50.762;4.470;2024-01-11T00:34:01;-4.60;99.90
38973;DHT22;25333;50.762;4.470;2024-01-11T00:36:26;-4.60;99.90
38973;DHT22;25333;50.762;4.470;2024-01-11T00:38:54;-4.60;99.90
38973;DHT22;25333;50.762;4.470;2024-01-11T00:41:19;-4.60;99.90
38973;DHT22;25333;50.762;4.470;2024-01-11T00:43:45;-4.50;99.90
38973;DHT22;25333;50.762;4.470;2024-01-11T00:46:11;-4.50;99.90
38973;DHT22;25333;50.762;4.470;2024-01-11T00:48:36;-4.60;99.90
38973;DHT22;25333;50.762;4.470;2024-01-11T00:51:04;-4.60;99.90
38973;DHT22;25333;50.762;4.470;2024-01-11T00:53:30;-4.60;99.90
38973;DHT22;25333;50.762;4.470;2024-01-11T00:56:00;-4.60;99.90
38973;DHT22;25333;50.762;4.470;2024-01-11T00:58:26;-4.60;99.90
38973;DHT22;25333;50.762;4.470;2024-01-11T01:00:52;-4.60;99.90
38973;DHT22;25333;50.762;4.470;2024-01-11T01:03:23;-4.70;99.90
38973;DHT22;25333;50.762;4.470;2024-01-11T01:05:51;-4.70;99.90
38973;DHT22;25333;50.762;4.470;2024-01-11T01:08:16;-4.70;99.90
38973;DHT22;25333;50.762;4.470;2024-01-11T01:10:42;-4.70;99.90
38973;DHT22;25333;50.762;4.470;2024-01-11T01:13:08;-4.60;99.90
38973;DHT22;25333;50.762;4.470;2024-01-11T01:15:34;-4.60;99.90
38973;DHT22;25333;50.762;4.470;2024-01-11T01:17:59;-4.70;99.90
38973;DHT22;25333;50.762;4.470;2024-01-11T01:20:25;-4.70;99.90
38973;DHT22;25333;50.762;4.470;2024-01-11T01:22:51;-4.70;99.90
38973;DHT22;25333;50.762;4.470;2024-01-11T01:25:16;-4.70;99.90
38973;DHT22;25333;50.762;4.470;2024-01-11T01:27:43;-4.70;99.90
38973;DHT22;25333;50.762;4.470;2024-01-11T01:30:09;-4.70;99.90
38973;DHT22;25333;50.762;4.470;2024-01-11T01:32:35;-4.80;99.90
38973;DHT22;25333;50.762;4.470;2024-01-11T01:35:00;-4.80;99.90
38973;DHT22;25333;50.762;4.470;2024-01-11T01:37:26;-4.80;99.90
38973;DHT22;25333;50.762;4.470;2024-01-11T01:39:52;-4.80;99.90
38973;DHT22;25333;50.762;4.470;2024-01-11T01:42:17;-4.80;99.90
38973;DHT22;25333;50.762;4.470;2024-01-11T01:44:43;-4.80;99.90
38973;DHT22;25333;50.762;4.470;2024-01-11T01:47:10;-4.80;99.90
38973;DHT22;25333;50.762;4.470;2024-01-11T01:49:37;-4.80;99.90
38973;DHT22;25333;50.762;4.470;2024-01-11T01:52:05;-4.80;99.90
38973;DHT22;25333;50.762;4.470;2024-01-11T01:54:34;-4.80;99.90
38973;DHT22;25333;50.762;4.470;2024-01-11T01:57:00;-4.90;99.90
38973;DHT22;25333;50.762;4.470;2024-01-11T01:59:29;-4.90;99.90
38973;DHT22;25333;50.762;4.470;2024-01-11T02:01:56;-4.90;99.90
38973;DHT22;25333;50.762;4.470;2024-01-11T02:04:24;-4.90;99.90
38973;DHT22;25333;50.762;4.470;2024-01-11T02:06:51;-4.90;99.90
38973;DHT22;25333;50.762;4.470;2024-01-11T02:09:18;-4.90;99.90
38973;DHT22;25333;50.762;4.470;2024-01-11T02:11:45;-5.00;99.90
38973;DHT22;25333;50.762;4.470;2024-01-11T02:14:11;-4.90;99.90
38973;DHT22;25333;50.762;4.470;2024-01-11T02:16:37;-4.90;99.90
38973;DHT22;25333;50.762;4.470;2024-01-11T02:19:06;-4.90;99.90
38973;DHT22;25333;50.762;4.470;2024-01-11T02:21:33;-5.00;99.90
38973;DHT22;25333;50.762;4.470;2024-01-11T02:24:06;-5.00;99.90
38973;DHT22;25333;50.762;4.470;2024-01-11T02:26:34;-5.00;99.90
38973;DHT22;25333;50.762;4.470;2024-01-11T02:29:00;-5.00;99.90
38973;DHT22;25333;50.762;4.470;2024-01-11T02:31:26;-5.00;99.90
38973;DHT22;25333;50.762;4.470;2024-01-11T02:33:52;-5.00;99.90
38973;DHT22;25333;50.762;4.470;2024-01-11T02:36:20;-5.00;99.90
38973;DHT22;25333;50.762;4.470;2024-01-11T02:38:46;-4.90;99.90
38973;DHT22;25333;50.762;4.470;2024-01-11T02:41:15;-5.00;99.90
38973;DHT22;25333;50.762;4.470;2024-01-11T02:43:46;-5.00;99.90
38973;DHT22;25333;50.762;4.470;2024-01-11T02:46:11;-5.00;99.90
38973;DHT22;25333;50.762;4.470;2024-01-11T02:48:37;-5.00;99.90
38973;DHT22;25333;50.762;4.470;2024-01-11T02:51:03;-5.10;99.90
38973;DHT22;25333;50.762;4.470;2024-01-11T02:53:29;-5.10;99.90
38973;DHT22;25333;50.762;4.470;2024-01-11T02:56:00;-5.00;99.90
38973;DHT22;25333;50.762;4.470;2024-01-11T02:58:25;-5.00;99.90
38973;DHT22;25333;50.762;4.470;2024-01-11T03:00:51;-5.00;99.90
38973;DHT22;25333;50.762;4.470;2024-01-11T03:03:17;-5.00;99.90
38973;DHT22;25333;50.762;4.470;2024-01-11T03:05:42;-5.10;99.90
38973;DHT22;25333;50.762;4.470;2024-01-11T03:08:08;-5.00;99.90
38973;DHT22;25333;50.762;4.470;2024-01-11T03:10:34;-5.10;99.90
38973;DHT22;25333;50.762;4.470;2024-01-11T03:13:02;-5.10;99.90
38973;DHT22;25333;50.762;4.470;2024-01-11T03:15:28;-5.10;99.90
38973;DHT22;25333;50.762;4.470;2024-01-11T03:17:54;-5.20;99.90
38973;DHT22;25333;50.762;4.470;2024-01-11T03:20:19;-5.10;99.90
38973;DHT22;25333;50.762;4.470;2024-01-11T03:22:52;-5.20;99.90
38973;DHT22;25333;50.762;4.470;2024-01-11T03:25:18;-5.20;99.90
38973;DHT22;25333;50.762;4.470;2024-01-11T03:27:44;-5.20;99.90
38973;DHT22;25333;50.762;4.470;2024-01-11T03:30:10;-5.10;99.90
38973;DHT22;25333;50.762;4.470;2024-01-11T03:32:36;-5.10;99.90
38973;DHT22;25333;50.762;4.470;2024-01-11T03:35:02;-5.10;99.90
38973;DHT22;25333;50.762;4.470;2024-01-11T03:37:28;-5.20;99.90
38973;DHT22;25333;50.762;4.470;2024-01-11T03:39:53;-5.10;99.90
38973;DHT22;25333;50.762;4.470;2024-01-11T03:42:19;-5.10;99.90
38973;DHT22;25333;50.762;4.470;2024-01-11T03:44:45;-5.10;99.90
38973;DHT22;25333;50.762;4.470;2024-01-11T03:47:10;-5.20;99.90
38973;DHT22;25333;50.762;4.470;2024-01-11T03:49:36;-5.10;99.90
38973;DHT22;25333;50.762;4.470;2024-01-11T03:52:02;-5.20;99.90
38973;DHT22;25333;50.762;4.470;2024-01-11T03:54:27;-5.20;99.90
38973;DHT22;25333;50.762;4.470;2024-01-11T03:56:53;-5.20;99.90
38973;DHT22;25333;50.762;4.470;2024-01-11T03:59:20;-5.30;99.90
38973;DHT22;25333;50.762;4.470;2024-01-11T04:01:46;-5.30;99.90
38973;DHT22;25333;50.762;4.470;2024-01-11T04:04:12;-5.30;99.90
38973;DHT22;25333;50.762;4.470;2024-01-11T04:06:37;-5.20;99.90
38973;DHT22;25333;50.762;4.470;2024-01-11T04:09:03;-5.20;99.90
38973;DHT22;25333;50.762;4.470;2024-01-11T04:11:29;-5.20;99.90
38973;DHT22;25333;50.762;4.470;2024-01-11T04:13:55;-5.20;99.90
38973;DHT22;25333;50.762;4.470;2024-01-11T04:16:21;-5.30;99.90
38973;DHT22;25333;50.762;4.470;2024-01-11T04:18:47;-5.20;99.90
38973;DHT22;25333;50.762;4.470;2024-01-11T04:21:27;-5.30;99.90
38973;DHT22;25333;50.762;4.470;2024-01-11T04:23:56;-5.30;99.90
38973;DHT22;25333;50.762;4.470;2024-01-11T04:26:22;-5.20;99.90
38973;DHT22;25333;50.762;4.470;2024-01-11T04:28:49;-5.20;99.90
38973;DHT22;25333;50.762;4.470;2024-01-11T04:31:15;-5.30;99.90
38973;DHT22;25333;50.762;4.470;2024-01-11T04:33:45;-5.30;99.90
38973;DHT22;25333;50.762;4.470;2024-01-11T04:36:12;-5.30;99.90
38973;DHT22;25333;50.762;4.470;2024-01-11T04:38:38;-5.30;99.90
38973;DHT22;25333;50.762;4.470;2024-01-11T04:41:11;-5.20;99.90
38973;DHT22;25333;50.762;4.470;2024-01-11T04:43:41;-5.20;99.90
38973;DHT22;25333;50.762;4.470;2024-01-11T04:46:20;-5.20;99.90
38973;DHT22;25333;50.762;4.470;2024-01-11T04:48:47;-5.20;99.90
38973;DHT22;25333;50.762;4.470;2024-01-11T04:51:14;-5.30;99.90
38973;DHT22;25333;50.762;4.470;2024-01-11T04:53:41;-5.20;99.90
38973;DHT22;25333;50.762;4.470;2024-01-11T04:56:09;-5.20;99.90
38973;DHT22;25333;50.762;4.470;2024-01-11T04:58:40;-5.30;99.90
38973;DHT22;25333;50.762;4.470;2024-01-11T05:01:06;-5.30;99.90
38973;DHT22;25333;50.762;4.470;2024-01-11T05:03:32;-5.30;99.90
38973;DHT22;25333;50.762;4.470;2024-01-11T05:05:59;-5.30;99.90
38973;DHT22;25333;50.762;4.470;2024-01-11T05:08:26;-5.30;99.90
38973;DHT22;25333;50.762;4.470;2024-01-11T05:10:53;-5.30;99.90
38973;DHT22;25333;50.762;4.470;2024-01-11T05:13:19;-5.30;99.90
38973;DHT22;25333;50.762;4.470;2024-01-11T05:15:45;-5.30;99.90
38973;DHT22;25333;50.762;4.470;2024-01-11T05:18:12;-5.30;99.90
38973;DHT22;25333;50.762;4.470;2024-01-11T05:20:38;-5.30;99.90
38973;DHT22;25333;50.762;4.470;2024-01-11T05:23:05;-5.30;99.90
38973;DHT22;25333;50.762;4.470;2024-01-11T05:25:32;-5.40;99.90
38973;DHT22;25333;50.762;4.470;2024-01-11T05:28:03;-5.40;99.90
38973;DHT22;25333;50.762;4.470;2024-01-11T05:30:29;-5.40;99.90
38973;DHT22;25333;50.762;4.470;2024-01-11T05:32:55;-5.30;99.90
38973;DHT22;25333;50.762;4.470;2024-01-11T05:35:22;-5.30;99.90
38973;DHT22;25333;50.762;4.470;2024-01-11T05:37:52;-5.30;99.90
38973;DHT22;25333;50.762;4.470;2024-01-11T05:40:20;-5.30;99.90
38973;DHT22;25333;50.762;4.470;2024-01-11T05:42:46;-5.30;99.90
38973;DHT22;25333;50.762;4.470;2024-01-11T05:45:12;-5.20;99.90
38973;DHT22;25333;50.762;4.470;2024-01-11T05:47:37;-5.20;99.90
38973;DHT22;25333;50.762;4.470;2024-01-11T05:50:03;-5.20;99.90
38973;DHT22;25333;50.762;4.470;2024-01-11T05:52:29;-5.20;99.90
38973;DHT22;25333;50.762;4.470;2024-01-11T05:54:54;-5.20;99.90
38973;DHT22;25333;50.762;4.470;2024-01-11T05:57:20;-5.30;99.90
38973;DHT22;25333;50.762;4.470;2024-01-11T05:59:47;-5.30;99.90
38973;DHT22;25333;50.762;4.470;2024-01-11T06:02:13;-5.30;99.90
38973;DHT22;25333;50.762;4.470;2024-01-11T06:04:39;-5.30;99.90
38973;DHT22;25333;50.762;4.470;2024-01-11T06:07:05;-5.20;99.90
38973;DHT22;25333;50.762;4.470;2024-01-11T06:09:31;-5.30;99.90
38973;DHT22;25333;50.762;4.470;2024-01-11T06:11:57;-5.30;99.90
38973;DHT22;25333;50.762;4.470;2024-01-11T06:14:23;-5.30;99.90
38973;DHT22;25333;50.762;4.470;2024-01-11T06:16:49;-5.40;99.90
38973;DHT22;25333;50.762;4.470;2024-01-11T06:19:15;-5.40;99.90
38973;DHT22;25333;50.762;4.470;2024-01-11T06:21:41;-5.40;99.90
38973;DHT22;25333;50.762;4.470;2024-01-11T06:24:06;-5.40;99.90
38973;DHT22;25333;50.762;4.470;2024-01-11T06:26:32;-5.50;99.90
38973;DHT22;25333;50.762;4.470;2024-01-11T06:28:58;-5.50;99.90
38973;DHT22;25333;50.762;4.470;2024-01-11T06:31:30;-5.50;99.90
38973;DHT22;25333;50.762;4.470;2024-01-11T06:34:05;-5.50;99.90
38973;DHT22;25333;50.762;4.470;2024-01-11T06:36:33;-5.50;99.90
38973;DHT22;25333;50.762;4.470;2024-01-11T06:38:58;-5.50;99.90
38973;DHT22;25333;50.762;4.470;2024-01-11T06:43:59;-5.40;99.90
38973;DHT22;25333;50.762;4.470;2024-01-11T06:46:49;-5.40;99.90
38973;DHT22;25333;50.762;4.470;2024-01-11T06:49:37;-5.50;99.90
38973;DHT22;25333;50.762;4.470;2024-01-11T06:54:52;-5.40;99.90
38973;DHT22;25333;50.762;4.470;2024-01-11T06:57:17;-5.50;99.90
38973;DHT22;25333;50.762;4.470;2024-01-11T06:59:43;-5.50;99.90
38973;DHT22;25333;50.762;4.470;2024-01-11T07:02:11;-5.50;99.90
38973;DHT22;25333;50.762;4.470;2024-01-11T07:04:38;-5.50;99.90
38973;DHT22;25333;50.762;4.470;2024-01-11T07:07:03;-5.50;99.90
38973;DHT22;25333;50.762;4.470;2024-01-11T07:09:30;-5.50;99.90
38973;DHT22;25333;50.762;4.470;2024-01-11T07:11:59;-5.50;99.90
38973;DHT22;25333;50.762;4.470;2024-01-11T07:14:26;-5.50;99.90
38973;DHT22;25333;50.762;4.470;2024-01-11T07:16:54;-5.50;99.90
38973;DHT22;25333;50.762;4.470;2024-01-11T07:19:20;-5.50;99.90
38973;DHT22;25333;50.762;4.470;2024-01-11T07:21:47;-5.50;99.90
38973;DHT22;25333;50.762;4.470;2024-01-11T07:24:13;-5.40;99.90
38973;DHT22;25333;50.762;4.470;2024-01-11T07:26:39;-5.50;99.90
38973;DHT22;25333;50.762;4.470;2024-01-11T07:29:07;-5.50;99.90
38973;DHT22;25333;50.762;4.470;2024-01-11T07:31:33;-5.50;99.90
38973;DHT22;25333;50.762;4.470;2024-01-11T07:33:59;-5.50;99.90
38973;DHT22;25333;50.762;4.470;2024-01-11T07:36:25;-5.50;99.90
38973;DHT22;25333;50.762;4.470;2024-01-11T07:38:51;-5.50;99.90
38973;DHT22;25333;50.762;4.470;2024-01-11T07:41:16;-5.50;99.90
38973;DHT22;25333;50.762;4.470;2024-01-11T07:43:42;-5.50;99.90
38973;DHT22;25333;50.762;4.470;2024-01-11T07:46:08;-5.50;99.90
38973;DHT22;25333;50.762;4.470;2024-01-11T07:48:35;-5.50;99.90
38973;DHT22;25333;50.762;4.470;2024-01-11T07:51:00;-5.50;99.90
38973;DHT22;25333;50.762;4.470;2024-01-11T07:53:26;-5.50;99.90
38973;DHT22;25333;50.762;4.470;2024-01-11T07:55:52;-5.50;99.90
38973;DHT22;25333;50.762;4.470;2024-01-11T07:58:18;-5.50;99.90
38973;DHT22;25333;50.762;4.470;2024-01-11T08:00:47;-5.50;99.90
38973;DHT22;25333;50.762;4.470;2024-01-11T08:03:13;-5.40;99.90
38973;DHT22;25333;50.762;4.470;2024-01-11T08:05:38;-5.50;99.90
38973;DHT22;25333;50.762;4.470;2024-01-11T08:08:04;-5.40;99.90
38973;DHT22;25333;50.762;4.470;2024-01-11T08:10:30;-5.40;99.90
38973;DHT22;25333;50.762;4.470;2024-01-11T08:12:59;-5.40;99.90
38973;DHT22;25333;50.762;4.470;2024-01-11T08:15:25;-5.40;99.90
38973;DHT22;25333;50.762;4.470;2024-01-11T08:17:51;-5.40;99.90
38973;DHT22;25333;50.762;4.470;2024-01-11T08:20:19;-5.40;99.90
38973;DHT22;25333;50.762;4.470;2024-01-11T08:22:48;-5.40;99.90
38973;DHT22;25333;50.762;4.470;2024-01-11T08:25:16;-5.30;99.90
38973;DHT22;25333;50.762;4.470;2024-01-11T08:27:43;-5.30;99.90
38973;DHT22;25333;50.762;4.470;2024-01-11T08:30:08;-5.30;99.90
38973;DHT22;25333;50.762;4.470;2024-01-11T08:32:34;-5.20;99.90
38973;DHT22;25333;50.762;4.470;2024-01-11T08:35:08;-5.20;99.90
38973;DHT22;25333;50.762;4.470;2024-01-11T08:37:35;-5.20;99.90
38973;DHT22;25333;50.762;4.470;2024-01-11T08:40:01;-5.10;99.90
38973;DHT22;25333;50.762;4.470;2024-01-11T08:42:30;-5.10;99.90
38973;DHT22;25333;50.762;4.470;2024-01-11T08:44:56;-5.00;99.90
38973;DHT22;25333;50.762;4.470;2024-01-11T08:47:21;-4.90;99.90
38973;DHT22;25333;50.762;4.470;2024-01-11T08:49:47;-4.80;99.90
38973;DHT22;25333;50.762;4.470;2024-01-11T08:52:13;-4.60;99.90
38973;DHT22;25333;50.762;4.470;2024-01-11T08:54:38;-4.40;99.90
38973;DHT22;25333;50.762;4.470;2024-01-11T08:57:04;-4.20;99.90
38973;DHT22;25333;50.762;4.470;2024-01-11T08:59:31;-4.00;99.90
38973;DHT22;25333;50.762;4.470;2024-01-11T09:01:58;-3.80;99.90
38973;DHT22;25333;50.762;4.470;2024-01-11T09:04:24;-3.70;99.90
38973;DHT22;25333;50.762;4.470;2024-01-11T09:06:49;-3.50;99.90
38973;DHT22;25333;50.762;4.470;2024-01-11T09:09:15;-3.40;99.90
38973;DHT22;25333;50.762;4.470;2024-01-11T09:11:42;-3.20;99.90
38973;DHT22;25333;50.762;4.470;2024-01-11T09:14:08;-2.90;99.90
38973;DHT22;25333;50.762;4.470;2024-01-11T09:16:36;-2.70;99.90
38973;DHT22;25333;50.762;4.470;2024-01-11T09:19:02;-2.80;99.90
38973;DHT22;25333;50.762;4.470;2024-01-11T09:21:28;-2.80;99.90
38973;DHT22;25333;50.762;4.470;2024-01-11T09:23:53;-2.90;99.90
38973;DHT22;25333;50.762;4.470;2024-01-11T09:26:19;-2.80;99.90
38973;DHT22;25333;50.762;4.470;2024-01-11T09:28:45;-2.80;99.90
38973;DHT22;25333;50.762;4.470;2024-01-11T09:31:11;-2.60;99.90
38973;DHT22;25333;50.762;4.470;2024-01-11T09:33:38;-2.40;99.90
38973;DHT22;25333;50.762;4.470;2024-01-11T09:36:04;-2.30;99.90
38973;DHT22;25333;50.762;4.470;2024-01-11T09:38:30;-2.20;99.90
38973;DHT22;25333;50.762;4.470;2024-01-11T09:41:09;-2.10;99.90
38973;DHT22;25333;50.762;4.470;2024-01-11T09:43:36;-2.00;99.90
38973;DHT22;25333;50.762;4.470;2024-01-11T09:46:04;-2.00;99.90
38973;DHT22;25333;50.762;4.470;2024-01-11T09:48:32;-1.90;99.90
38973;DHT22;25333;50.762;4.470;2024-01-11T09:51:03;-1.80;99.90
38973;DHT22;25333;50.762;4.470;2024-01-11T09:53:32;-1.70;99.90
38973;DHT22;25333;50.762;4.470;2024-01-11T09:55:59;-1.70;99.90
38973;DHT22;25333;50.762;4.470;2024-01-11T09:58:25;-1.50;99.90
38973;DHT22;25333;50.762;4.470;2024-01-11T10:00:55;-1.40;99.90
38973;DHT22;25333;50.762;4.470;2024-01-11T10:03:24;-1.30;99.90
38973;DHT22;25333;50.762;4.470;2024-01-11T10:05:57;-1.20;99.90
38973;DHT22;25333;50.762;4.470;2024-01-11T10:08:23;-1.10;99.90
38973;DHT22;25333;50.762;4.470;2024-01-11T10:10:49;-0.90;99.90
38973;DHT22;25333;50.762;4.470;2024-01-11T10:13:15;-0.70;99.90
38973;DHT22;25333;50.762;4.470;2024-01-11T10:15:42;-0.40;99.90
38973;DHT22;25333;50.762;4.470;2024-01-11T10:18:08;-0.30;99.90
38973;DHT22;25333;50.762;4.470;2024-01-11T10:20:34;-0.20;99.80
38973;DHT22;25333;50.762;4.470;2024-01-11T10:22:59;-0.20;99.30
38973;DHT22;25333;50.762;4.470;2024-01-11T10:25:28;-0.20;99.70
38973;DHT22;25333;50.762;4.470;2024-01-11T10:27:54;0.00;99.80
38973;DHT22;25333;50.762;4.470;2024-01-11T10:30:20;0.10;99.90
38973;DHT22;25333;50.762;4.470;2024-01-11T10:32:49;0.20;99.30
38973;DHT22;25333;50.762;4.470;2024-01-11T10:35:15;0.40;99.40
38973;DHT22;25333;50.762;4.470;2024-01-11T10:37:44;0.30;98.80
38973;DHT22;25333;50.762;4.470;2024-01-11T10:40:18;0.30;98.50
38973;DHT22;25333;50.762;4.470;2024-01-11T10:42:49;0.10;98.40
38973;DHT22;25333;50.762;4.470;2024-01-11T10:45:20;0.00;98.20
38973;DHT22;25333;50.762;4.470;2024-01-11T10:48:17;0.20;99.10
38973;DHT22;25333;50.762;4.470;2024-01-11T10:51:08;0.40;98.80
38973;DHT22;25333;50.762;4.470;2024-01-11T10:53:45;0.30;98.10
38973;DHT22;25333;50.762;4.470;2024-01-11T10:56:16;0.30;98.40
38973;DHT22;25333;50.762;4.470;2024-01-11T10:58:45;0.30;98.10
38973;DHT22;25333;50.762;4.470;2024-01-11T11:01:13;0.50;98.20
38973;DHT22;25333;50.762;4.470;2024-01-11T11:03:39;0.40;97.30
38973;DHT22;25333;50.762;4.470;2024-01-11T11:06:09;0.30;97.80
38973;DHT22;25333;50.762;4.470;2024-01-11T11:08:36;0.30;97.80
38973;DHT22;25333;50.762;4.470;2024-01-11T11:11:04;0.30;98.00
38973;DHT22;25333;50.762;4.470;2024-01-11T11:13:32;0.40;96.80
38973;DHT22;25333;50.762;4.470;2024-01-11T11:15:58;0.30;97.90
38973;DHT22;25333;50.762;4.470;2024-01-11T11:18:24;0.30;97.60
38973;DHT22;25333;50.762;4.470;2024-01-11T11:20:50;0.10;97.50
38973;DHT22;25333;50.762;4.470;2024-01-11T11:23:18;0.10;97.60
38973;DHT22;25333;50.762;4.470;2024-01-11T11:25:48;0.10;98.30
38973;DHT22;25333;50.762;4.470;2024-01-11T11:28:15;0.20;97.70
38973;DHT22;25333;50.762;4.470;2024-01-11T11:30:43;0.10;97.90
38973;DHT22;25333;50.762;4.470;2024-01-11T11:33:22;0.20;97.90
38973;DHT22;25333;50.762;4.470;2024-01-11T11:35:58;0.40;98.30
38973;DHT22;25333;50.762;4.470;2024-01-11T11:38:29;0.40;97.70
38973;DHT22;25333;50.762;4.470;2024-01-11T11:40:57;0.40;97.50
38973;DHT22;25333;50.762;4.470;2024-01-11T11:43:26;0.30;97.70
38973;DHT22;25333;50.762;4.470;2024-01-11T11:45:53;0.40;98.00
38973;DHT22;25333;50.762;4.470;2024-01-11T11:51:09;0.60;97.70
38973;DHT22;25333;50.762;4.470;2024-01-11T11:53:37;0.70;97.70
38973;DHT22;25333;50.762;4.470;2024-01-11T11:56:03;0.70;97.70
38973;DHT22;25333;50.762;4.470;2024-01-11T11:58:30;0.60;97.30
38973;DHT22;25333;50.762;4.470;2024-01-11T12:00:58;0.60;97.40
38973;DHT22;25333;50.762;4.470;2024-01-11T12:03:35;0.40;97.40
38973;DHT22;25333;50.762;4.470;2024-01-11T12:06:05;0.50;97.50
38973;DHT22;25333;50.762;4.470;2024-01-11T12:08:32;0.50;96.70
38973;DHT22;25333;50.762;4.470;2024-01-11T12:10:58;0.20;97.00
38973;DHT22;25333;50.762;4.470;2024-01-11T12:13:25;0.10;97.40
38973;DHT22;25333;50.762;4.470;2024-01-11T12:15:50;0.10;97.60
38973;DHT22;25333;50.762;4.470;2024-01-11T12:18:16;0.30;97.70
38973;DHT22;25333;50.762;4.470;2024-01-11T12:20:42;0.40;97.70
38973;DHT22;25333;50.762;4.470;2024-01-11T12:23:08;0.40;97.20
38973;DHT22;25333;50.762;4.470;2024-01-11T12:25:35;0.40;97.40
38973;DHT22;25333;50.762;4.470;2024-01-11T12:28:01;0.50;97.60
38973;DHT22;25333;50.762;4.470;2024-01-11T12:30:27;0.50;97.50
38973;DHT22;25333;50.762;4.470;2024-01-11T12:32:53;0.50;97.50
38973;DHT22;25333;50.762;4.470;2024-01-11T12:35:20;0.50;97.40
38973;DHT22;25333;50.762;4.470;2024-01-11T12:37:56;0.50;97.20
38973;DHT22;25333;50.762;4.470;2024-01-11T12:40:24;0.50;97.40
38973;DHT22;25333;50.762;4.470;2024-01-11T12:42:56;0.50;97.50
38973;DHT22;25333;50.762;4.470;2024-01-11T12:45:24;0.40;97.50
38973;DHT22;25333;50.762;4.470;2024-01-11T12:48:09;0.50;97.40
38973;DHT22;25333;50.762;4.470;2024-01-11T12:51:02;0.50;97.30
38973;DHT22;25333;50.762;4.470;2024-01-11T12:53:29;0.50;97.50
38973;DHT22;25333;50.762;4.470;2024-01-11T12:56:14;0.40;97.10
38973;DHT22;25333;50.762;4.470;2024-01-11T12:58:41;0.50;97.50
38973;DHT22;25333;50.762;4.470;2024-01-11T13:01:07;0.40;96.90
38973;DHT22;25333;50.762;4.470;2024-01-11T13:03:35;0.40;97.40
38973;DHT22;25333;50.762;4.470;2024-01-11T13:06:07;0.50;97.50
38973;DHT22;25333;50.762;4.470;2024-01-11T13:08:36;0.40;97.30
38973;DHT22;25333;50.762;4.470;2024-01-11T13:11:06;0.40;97.40
38973;DHT22;25333;50.762;4.470;2024-01-11T13:13:33;0.50;97.70
38973;DHT22;25333;50.762;4.470;2024-01-11T13:16:00;0.50;97.70
38973;DHT22;25333;50.762;4.470;2024-01-11T13:18:25;0.40;97.30
38973;DHT22;25333;50.762;4.470;2024-01-11T13:20:51;0.50;97.90
38973;DHT22;25333;50.762;4.470;2024-01-11T13:23:18;0.50;97.80
38973;DHT22;25333;50.762;4.470;2024-01-11T13:25:48;0.60;97.70
38973;DHT22;25333;50.762;4.470;2024-01-11T13:28:15;0.60;97.30
38973;DHT22;25333;50.762;4.470;2024-01-11T13:30:42;0.50;97.20
38973;DHT22;25333;50.762;4.470;2024-01-11T13:33:11;0.50;97.40
38973;DHT22;25333;50.762;4.470;2024-01-11T13:35:59;0.50;97.50
38973;DHT22;25333;50.762;4.470;2024-01-11T13:38:26;0.60;97.40
38973;DHT22;25333;50.762;4.470;2024-01-11T13:40:52;0.60;97.70
38973;DHT22;25333;50.762;4.470;2024-01-11T13:43:20;0.60;97.40
38973;DHT22;25333;50.762;4.470;2024-01-11T13:45:46;0.60;97.30
38973;DHT22;25333;50.762;4.470;2024-01-11T13:48:12;0.70;97.60
38973;DHT22;25333;50.762;4.470;2024-01-11T13:50:38;0.70;97.30
38973;DHT22;25333;50.762;4.470;2024-01-11T13:53:03;0.70;97.40
38973;DHT22;25333;50.762;4.470;2024-01-11T13:55:54;0.70;97.20
38973;DHT22;25333;50.762;4.470;2024-01-11T13:58:38;0.60;97.40
38973;DHT22;25333;50.762;4.470;2024-01-11T14:01:16;0.70;97.40
38973;DHT22;25333;50.762;4.470;2024-01-11T14:03:42;0.70;97.80
38973;DHT22;25333;50.762;4.470;2024-01-11T14:06:08;0.70;97.50
38973;DHT22;25333;50.762;4.470;2024-01-11T14:08:33;0.70;97.70
38973;DHT22;25333;50.762;4.470;2024-01-11T14:10:59;0.70;97.70
38973;DHT22;25333;50.762;4.470;2024-01-11T14:13:25;0.70;97.60
38973;DHT22;25333;50.762;4.470;2024-01-11T14:15:51;0.70;97.80
38973;DHT22;25333;50.762;4.470;2024-01-11T14:18:17;0.60;97.30
38973;DHT22;25333;50.762;4.470;2024-01-11T14:20:46;0.70;97.50
38973;DHT22;25333;50.762;4.470;2024-01-11T14:23:14;0.70;97.60
38973;DHT22;25333;50.762;4.470;2024-01-11T14:25:40;0.80;97.70
38973;DHT22;25333;50.762;4.470;2024-01-11T14:28:06;0.80;97.50
38973;DHT22;25333;50.762;4.470;2024-01-11T14:30:32;0.80;97.40
38973;DHT22;25333;50.762;4.470;2024-01-11T14:32:58;0.70;97.50
38973;DHT22;25333;50.762;4.470;2024-01-11T14:35:45;0.80;97.70
38973;DHT22;25333;50.762;4.470;2024-01-11T14:38:11;0.70;97.50
38973;DHT22;25333;50.762;4.470;2024-01-11T14:40:36;0.80;97.60
38973;DHT22;25333;50.762;4.470;2024-01-11T14:43:02;0.80;97.60
38973;DHT22;25333;50.762;4.470;2024-01-11T14:45:29;0.80;97.70
38973;DHT22;25333;50.762;4.470;2024-01-11T14:47:56;0.70;97.60
38973;DHT22;25333;50.762;4.470;2024-01-11T14:50:23;0.70;97.70
38973;DHT22;25333;50.762;4.470;2024-01-11T14:52:49;0.70;97.80
38973;DHT22;25333;50.762;4.470;2024-01-11T14:55:15;0.70;97.90
38973;DHT22;25333;50.762;4.470;2024-01-11T14:57:42;0.80;98.20
38973;DHT22;25333;50.762;4.470;2024-01-11T15:00:09;0.80;98.10
38973;DHT22;25333;50.762;4.470;2024-01-11T15:02:38;0.80;98.10
38973;DHT22;25333;50.762;4.470;2024-01-11T15:05:06;0.80;98.00
38973;DHT22;25333;50.762;4.470;2024-01-11T15:07:32;0.70;97.80
38973;DHT22;25333;50.762;4.470;2024-01-11T15:09:58;0.70;98.00
38973;DHT22;25333;50.762;4.470;2024-01-11T15:12:23;0.70;98.00
38973;DHT22;25333;50.762;4.470;2024-01-11T15:14:49;0.70;98.00
38973;DHT22;25333;50.762;4.470;2024-01-11T15:17:17;0.70;98.10
38973;DHT22;25333;50.762;4.470;2024-01-11T15:19:50;0.70;98.10
38973;DHT22;25333;50.762;4.470;2024-01-11T15:22:15;0.60;97.90
38973;DHT22;25333;50.762;4.470;2024-01-11T15:24:41;0.50;97.90
38973;DHT22;25333;50.762;4.470;2024-01-11T15:27:08;0.40;97.50
38973;DHT22;25333;50.762;4.470;2024-01-11T15:29:33;0.40;97.50
38973;DHT22;25333;50.762;4.470;2024-01-11T15:31:59;0.40;97.60
38973;DHT22;25333;50.762;4.470;2024-01-11T15:34:25;0.40;97.60
38973;DHT22;25333;50.762;4.470;2024-01-11T15:36:51;0.30;97.60
38973;DHT22;25333;50.762;4.470;2024-01-11T15:39:16;0.20;97.60
38973;DHT22;25333;50.762;4.470;2024-01-11T15:41:44;0.20;97.90
38973;DHT22;25333;50.762;4.470;2024-01-11T15:44:12;0.10;98.10
38973;DHT22;25333;50.762;4.470;2024-01-11T15:46:37;0.00;97.80